Time;durP1;ratioP1;P1;durP2;ratioP2;P2;SDS_P1;SDS_P2;PMS_P1;PMS_P2;Temp;Humidity;BMP_temperature;BMP_pressure;BME280_temperature;BME280_humidity;BME280_pressure;Samples;Min_cycle;Max_cycle;Signal;HPM_P1;HPM_P2
2021/07/07 00:00:00;;;;;;;1.50;1.00;;;16.50;98.20;;;;;;5031027;28;20471;-81
2021/07/07 00:02:28;;;;;;;1.50;1.00;;;16.40;98.20;;;;;;5026782;28;20467;-81
2021/07/07 00:04:55;;;;;;;1.50;0.90;;;16.40;98.20;;;;;;5031326;28;20494;-81
2021/07/07 00:07:22;;;;;;;1.50;1.10;;;16.40;98.20;;;;;;5032761;28;20459;-81
2021/07/07 00:09:49;;;;;;;1.50;1.00;;;16.40;98.20;;;;;;5026850;28;20468;-83
2021/07/07 00:12:16;;;;;;;1.50;1.00;;;16.40;98.20;;;;;;5031439;28;20479;-82
2021/07/07 00:14:44;;;;;;;1.50;1.00;;;16.40;98.20;;;;;;5024256;28;20487;-82
2021/07/07 00:17:10;;;;;;;1.50;1.00;;;16.30;98.20;;;;;;5029754;28;20471;-81
2021/07/07 00:19:38;;;;;;;1.50;1.00;;;16.30;98.20;;;;;;5026220;28;20468;-83
2021/07/07 00:22:05;;;;;;;1.50;1.00;;;16.30;98.20;;;;;;5030646;28;20464;-83
2021/07/07 00:24:32;;;;;;;1.50;1.00;;;16.30;98.20;;;;;;5030203;28;20492;-83
2021/07/07 00:26:59;;;;;;;1.57;1.00;;;16.30;98.20;;;;;;5031408;28;20662;-81
2021/07/07 00:29:26;;;;;;;1.50;1.00;;;16.30;98.20;;;;;;5033014;28;20463;-83
2021/07/07 00:31:52;;;;;;;1.50;0.93;;;16.30;98.20;;;;;;5029677;28;20491;-83
2021/07/07 00:34:19;;;;;;;1.50;1.00;;;16.20;98.20;;;;;;5023716;28;20487;-82
2021/07/07 00:36:47;;;;;;;1.50;1.00;;;16.20;98.20;;;;;;5029705;28;20452;-83
2021/07/07 00:39:14;;;;;;;1.50;1.00;;;16.20;98.20;;;;;;5028415;28;20833;-84
2021/07/07 00:41:41;;;;;;;1.50;1.00;;;16.20;98.20;;;;;;5019321;28;20849;-82
2021/07/07 00:44:08;;;;;;;1.50;1.00;;;16.20;98.20;;;;;;5023144;28;20487;-82
2021/07/07 00:46:37;;;;;;;1.50;1.00;;;16.20;98.20;;;;;;5025460;28;20460;-82
2021/07/07 00:49:03;;;;;;;1.50;1.00;;;16.10;98.20;;;;;;5032686;28;20493;-83
2021/07/07 00:51:30;;;;;;;1.50;1.00;;;16.10;98.20;;;;;;5016759;28;20488;-82
2021/07/07 00:54:01;;;;;;;1.50;1.00;;;16.10;98.20;;;;;;5016356;28;20871;-82
2021/07/07 00:56:29;;;;;;;1.50;1.00;;;16.10;98.20;;;;;;5025895;28;20460;-82
2021/07/07 00:58:55;;;;;;;1.57;1.00;;;16.10;98.20;;;;;;5034934;28;20476;-82
2021/07/07 01:01:23;;;;;;;1.50;1.00;;;16.10;98.20;;;;;;5031714;28;20468;-84
2021/07/07 01:03:49;;;;;;;1.50;1.00;;;16.00;98.20;;;;;;5030882;28;20463;-82
2021/07/07 01:06:16;;;;;;;1.50;1.00;;;16.00;98.20;;;;;;5028040;28;20470;-85
2021/07/07 01:08:43;;;;;;;1.53;1.00;;;16.00;98.20;;;;;;5015664;28;20464;-84
2021/07/07 01:11:11;;;;;;;1.53;1.00;;;16.00;98.20;;;;;;5026454;28;20519;-84
2021/07/07 01:13:39;;;;;;;1.50;1.00;;;16.00;98.20;;;;;;5030481;28;20473;-83
2021/07/07 01:16:06;;;;;;;1.50;1.00;;;16.10;98.20;;;;;;5032057;28;20537;-83
2021/07/07 01:18:33;;;;;;;1.50;1.00;;;16.10;98.20;;;;;;5029567;28;20466;-83
2021/07/07 01:21:00;;;;;;;1.50;0.97;;;16.10;98.20;;;;;;5024650;28;20464;-85
2021/07/07 01:23:28;;;;;;;1.50;1.00;;;16.10;98.20;;;;;;5020330;28;20473;-83
2021/07/07 01:25:55;;;;;;;1.57;1.00;;;16.20;98.20;;;;;;5031540;28;20491;-83
2021/07/07 01:28:22;;;;;;;1.50;0.90;;;16.20;98.20;;;;;;5032281;28;20509;-83
2021/07/07 01:30:49;;;;;;;1.50;1.00;;;16.20;98.20;;;;;;5026206;28;20494;-84
2021/07/07 01:33:16;;;;;;;1.50;1.00;;;16.20;98.20;;;;;;5025854;28;20467;-83
2021/07/07 01:35:43;;;;;;;1.50;0.90;;;16.30;98.20;;;;;;5029017;28;21001;-82
2021/07/07 01:38:10;;;;;;;1.50;0.97;;;16.30;98.20;;;;;;5020538;28;20854;-79
2021/07/07 01:40:38;;;;;;;1.50;1.00;;;16.30;98.20;;;;;;5027258;28;20467;-80
2021/07/07 01:43:05;;;;;;;1.50;1.00;;;16.30;98.20;;;;;;5024705;28;20467;-81
2021/07/07 01:45:32;;;;;;;1.50;1.00;;;16.30;98.20;;;;;;5028241;28;21013;-84
2021/07/07 01:47:58;;;;;;;1.50;1.00;;;16.30;98.20;;;;;;5028214;28;20455;-80
2021/07/07 01:50:26;;;;;;;1.50;1.00;;;16.30;98.20;;;;;;5027471;28;20489;-83
2021/07/07 01:52:55;;;;;;;1.50;1.00;;;16.30;98.20;;;;;;5024895;28;20490;-80
2021/07/07 01:55:25;;;;;;;1.50;1.00;;;16.40;98.20;;;;;;5016265;28;20518;-80
2021/07/07 01:57:53;;;;;;;1.50;1.07;;;16.40;98.20;;;;;;5025560;28;20479;-83
2021/07/07 02:00:24;;;;;;;1.50;0.93;;;16.30;98.20;;;;;;5023094;28;20476;-83
2021/07/07 02:02:52;;;;;;;1.50;1.00;;;16.30;98.20;;;;;;5018846;28;20478;-81
2021/07/07 02:05:23;;;;;;;1.50;1.00;;;16.30;98.20;;;;;;5017985;28;20570;-82
2021/07/07 02:07:50;;;;;;;1.50;0.90;;;16.30;98.20;;;;;;5023164;28;20991;-80
2021/07/07 02:10:17;;;;;;;1.50;1.00;;;16.30;98.20;;;;;;5017380;28;20770;-82
2021/07/07 02:12:45;;;;;;;1.70;1.10;;;16.30;98.20;;;;;;5021302;28;20474;-81
2021/07/07 02:15:16;;;;;;;1.50;1.00;;;16.30;98.20;;;;;;5028487;28;20484;-81
2021/07/07 02:17:44;;;;;;;1.50;1.00;;;16.30;98.20;;;;;;5022858;28;20463;-81
2021/07/07 02:20:13;;;;;;;1.50;0.97;;;16.30;98.20;;;;;;5015046;28;20464;-85
2021/07/07 02:22:40;;;;;;;1.50;1.00;;;16.30;98.20;;;;;;5023505;28;20578;-82
2021/07/07 02:25:09;;;;;;;1.50;1.00;;;16.30;98.20;;;;;;5030491;28;20484;-82
2021/07/07 02:27:36;;;;;;;1.50;1.00;;;16.30;98.20;;;;;;5027991;28;20844;-83
2021/07/07 02:30:06;;;;;;;1.50;0.87;;;16.30;98.20;;;;;;5028173;28;20907;-80
2021/07/07 02:32:34;;;;;;;1.50;1.00;;;16.30;98.20;;;;;;5017502;28;20487;-84
2021/07/07 02:35:00;;;;;;;1.50;1.00;;;16.40;98.20;;;;;;5025686;28;20487;-79
2021/07/07 02:37:27;;;;;;;1.50;1.00;;;16.40;98.20;;;;;;5031289;28;20474;-77
2021/07/07 02:39:54;;;;;;;1.50;1.00;;;16.40;98.20;;;;;;5027011;28;20957;-78
2021/07/07 02:42:21;;;;;;;1.60;1.17;;;16.40;98.20;;;;;;5027122;28;20467;-78
2021/07/07 02:44:47;;;;;;;1.50;0.90;;;16.40;98.20;;;;;;5028264;28;20495;-80
2021/07/07 02:47:14;;;;;;;1.50;1.00;;;16.40;98.20;;;;;;5028209;28;20879;-80
2021/07/07 02:49:42;;;;;;;1.50;1.00;;;16.30;98.20;;;;;;5021914;28;20491;-81
2021/07/07 02:52:09;;;;;;;1.50;1.00;;;16.30;98.20;;;;;;5023422;28;20551;-79
2021/07/07 02:54:36;;;;;;;1.50;1.00;;;16.30;98.20;;;;;;5031528;28;20483;-82
2021/07/07 02:57:03;;;;;;;1.50;1.00;;;16.20;98.20;;;;;;5032205;28;20470;-81
2021/07/07 02:59:30;;;;;;;1.50;1.00;;;16.20;98.20;;;;;;5029869;28;20478;-81
2021/07/07 03:01:56;;;;;;;1.50;1.00;;;16.20;98.20;;;;;;5020582;28;20466;-80
2021/07/07 03:04:23;;;;;;;1.50;1.00;;;16.10;98.20;;;;;;5034639;28;20824;-81
2021/07/07 03:06:51;;;;;;;1.50;1.00;;;16.10;98.20;;;;;;5028043;28;20957;-78
2021/07/07 03:09:18;;;;;;;1.50;1.00;;;16.10;98.20;;;;;;5032070;28;20825;-80
2021/07/07 03:11:45;;;;;;;1.50;1.00;;;16.00;98.20;;;;;;5025566;28;21028;-79
2021/07/07 03:14:12;;;;;;;1.50;1.00;;;16.00;98.20;;;;;;5031206;28;20496;-80
2021/07/07 03:16:38;;;;;;;1.53;1.00;;;15.90;98.20;;;;;;5033545;28;20467;-77
2021/07/07 03:19:05;;;;;;;1.50;1.00;;;15.90;98.20;;;;;;5021963;28;20467;-82
2021/07/07 03:21:32;;;;;;;1.50;0.90;;;15.90;98.20;;;;;;5023603;28;20490;-83
2021/07/07 03:24:00;;;;;;;1.50;1.00;;;15.80;98.20;;;;;;5028178;28;20483;-80
2021/07/07 03:26:27;;;;;;;1.50;1.00;;;15.80;98.20;;;;;;5026427;28;20460;-80
2021/07/07 03:28:53;;;;;;;1.50;1.00;;;15.80;98.20;;;;;;5023555;28;20467;-85
2021/07/07 03:31:20;;;;;;;1.53;1.00;;;15.80;98.20;;;;;;5034666;28;20465;-85
2021/07/07 03:33:47;;;;;;;1.50;1.00;;;15.80;98.20;;;;;;5031893;28;20478;-82
2021/07/07 03:36:14;;;;;;;1.50;1.00;;;15.80;98.20;;;;;;5028373;28;20478;-81
2021/07/07 03:38:41;;;;;;;1.50;1.00;;;15.80;98.20;;;;;;5024669;28;20486;-81
2021/07/07 03:41:09;;;;;;;1.50;0.90;;;15.70;98.20;;;;;;5032101;28;20480;-81
2021/07/07 03:43:36;;;;;;;1.50;1.00;;;15.80;98.20;;;;;;5027030;28;20474;-80
2021/07/07 03:46:02;;;;;;;1.50;0.90;;;15.70;98.20;;;;;;5027414;28;20886;-80
2021/07/07 03:48:29;;;;;;;1.50;0.93;;;15.70;98.20;;;;;;5026189;28;20499;-81
2021/07/07 03:50:56;;;;;;;1.50;1.00;;;15.70;98.20;;;;;;5032498;28;20468;-83
2021/07/07 03:53:23;;;;;;;1.50;1.00;;;15.70;98.20;;;;;;5017247;28;20478;-83
2021/07/07 03:55:50;;;;;;;1.50;1.00;;;15.70;98.20;;;;;;5025077;28;20567;-83
2021/07/07 03:58:18;;;;;;;1.50;0.90;;;15.70;98.20;;;;;;5028602;28;20539;-80
2021/07/07 04:00:45;;;;;;;1.50;1.00;;;15.70;98.20;;;;;;5024004;28;20725;-80
2021/07/07 04:03:12;;;;;;;1.53;1.00;;;15.70;98.20;;;;;;5020972;28;20471;-84
2021/07/07 04:05:39;;;;;;;1.50;1.00;;;15.60;98.20;;;;;;5029444;28;20518;-83
2021/07/07 04:08:05;;;;;;;1.50;1.00;;;15.60;98.20;;;;;;5025143;28;20478;-81
2021/07/07 04:10:35;;;;;;;1.50;1.10;;;15.60;98.20;;;;;;5018688;28;20464;-84
2021/07/07 04:13:02;;;;;;;1.50;1.00;;;15.60;98.20;;;;;;5020046;28;20463;-81
2021/07/07 04:15:31;;;;;;;1.50;1.00;;;15.70;98.20;;;;;;5025882;28;20495;-84
2021/07/07 04:17:57;;;;;;;1.50;1.00;;;15.70;98.20;;;;;;5034024;28;20962;-84
2021/07/07 04:20:24;;;;;;;1.50;1.00;;;15.70;98.20;;;;;;5034472;28;20476;-83
2021/07/07 04:22:51;;;;;;;1.50;1.00;;;15.70;98.20;;;;;;5027618;28;20516;-80
2021/07/07 04:25:18;;;;;;;1.50;1.00;;;15.70;98.20;;;;;;5031111;28;20487;-81
2021/07/07 04:27:47;;;;;;;1.50;1.00;;;15.80;98.20;;;;;;5031016;28;20473;-78
2021/07/07 04:30:16;;;;;;;1.50;0.90;;;15.80;98.20;;;;;;5025082;28;20463;-80
2021/07/07 04:32:45;;;;;;;1.50;1.00;;;15.80;98.20;;;;;;5018204;28;20564;-80
2021/07/07 04:35:13;;;;;;;1.50;1.00;;;15.90;98.20;;;;;;5024739;28;20471;-81
2021/07/07 04:37:40;;;;;;;1.50;1.00;;;16.00;98.20;;;;;;5024631;28;20468;-81
2021/07/07 04:40:09;;;;;;;1.50;1.00;;;16.00;98.20;;;;;;5029100;28;20460;-83
2021/07/07 04:42:36;;;;;;;1.50;0.90;;;16.00;98.20;;;;;;5027958;28;20797;-83
2021/07/07 04:45:06;;;;;;;1.50;1.00;;;16.10;98.20;;;;;;5027913;28;20571;-84
2021/07/07 04:47:33;;;;;;;1.50;1.10;;;16.10;98.20;;;;;;5028909;28;20476;-83
2021/07/07 04:50:01;;;;;;;1.50;1.10;;;16.10;98.20;;;;;;5029660;28;20551;-80
2021/07/07 04:52:28;;;;;;;1.50;1.00;;;16.20;98.20;;;;;;5025639;28;20873;-81
2021/07/07 04:54:55;;;;;;;1.50;1.00;;;16.30;98.20;;;;;;5022880;28;20495;-82
2021/07/07 04:57:22;;;;;;;1.50;1.00;;;16.40;98.20;;;;;;5031102;28;20468;-83
2021/07/07 04:59:49;;;;;;;1.50;0.97;;;16.50;98.20;;;;;;5023503;28;20475;-83
2021/07/07 05:02:15;;;;;;;1.50;1.00;;;16.70;98.20;;;;;;5016679;28;20480;-81
2021/07/07 05:04:44;;;;;;;1.50;1.00;;;16.90;98.20;;;;;;5026007;28;20495;-81
2021/07/07 05:07:12;;;;;;;1.50;0.90;;;17.00;98.20;;;;;;5028213;28;20546;-80
2021/07/07 05:09:39;;;;;;;1.50;1.00;;;17.20;98.20;;;;;;5026985;28;20482;-79
2021/07/07 05:12:06;;;;;;;1.50;1.00;;;17.40;98.20;;;;;;5029095;28;20475;-83
2021/07/07 05:14:34;;;;;;;1.60;1.00;;;17.60;98.20;;;;;;5025798;28;20492;-82
2021/07/07 05:17:01;;;;;;;1.50;1.00;;;17.70;98.20;;;;;;5034705;28;20471;-82
2021/07/07 05:19:28;;;;;;;1.50;0.90;;;17.90;98.20;;;;;;5028484;28;20471;-82
2021/07/07 05:21:55;;;;;;;1.53;0.90;;;18.10;98.20;;;;;;5023243;28;20490;-82
2021/07/07 05:24:23;;;;;;;1.60;1.13;;;18.30;98.20;;;;;;5017175;28;20534;-84
2021/07/07 05:26:50;;;;;;;1.53;1.00;;;18.60;98.20;;;;;;5018714;28;20478;-82
2021/07/07 05:29:17;;;;;;;1.50;1.00;;;18.80;97.40;;;;;;5018296;28;20842;-81
2021/07/07 05:31:44;;;;;;;1.50;0.90;;;18.90;96.60;;;;;;5012900;28;20837;-81
2021/07/07 05:34:11;;;;;;;1.57;1.00;;;19.00;96.20;;;;;;5025561;28;20483;-82
2021/07/07 05:36:37;;;;;;;1.57;1.00;;;19.20;96.20;;;;;;5020043;28;20841;-80
2021/07/07 05:39:04;;;;;;;1.60;1.00;;;19.20;95.70;;;;;;5021572;28;20482;-81
2021/07/07 05:41:33;;;;;;;1.50;0.90;;;19.40;96.10;;;;;;5021862;28;20909;-82
2021/07/07 05:43:59;;;;;;;1.60;1.00;;;19.50;95.10;;;;;;5025617;28;20568;-81
2021/07/07 05:46:26;;;;;;;1.57;1.00;;;19.60;94.60;;;;;;5024610;28;20460;-82
2021/07/07 05:48:53;;;;;;;1.50;0.90;;;19.50;94.50;;;;;;5013896;28;20849;-83
2021/07/07 05:51:20;;;;;;;1.50;0.90;;;19.50;94.70;;;;;;5026836;28;20471;-81
2021/07/07 05:53:47;;;;;;;1.50;0.93;;;19.60;94.80;;;;;;5018330;28;20460;-83
2021/07/07 05:56:14;;;;;;;1.50;0.90;;;19.50;94.50;;;;;;5026846;28;20460;-81
2021/07/07 05:58:45;;;;;;;1.50;0.90;;;19.50;94.90;;;;;;5025415;28;20478;-80
2021/07/07 06:01:12;;;;;;;1.50;0.90;;;19.60;95.20;;;;;;5030577;28;20463;-84
2021/07/07 06:03:38;;;;;;;1.50;0.90;;;19.60;94.10;;;;;;5025535;28;20498;-82
2021/07/07 06:06:05;;;;;;;1.60;1.10;;;19.70;93.40;;;;;;5026935;28;20468;-82
2021/07/07 06:08:32;;;;;;;1.50;0.90;;;19.70;93.10;;;;;;5024547;28;20936;-80
2021/07/07 06:10:59;;;;;;;1.50;0.90;;;19.80;93.60;;;;;;5023548;28;20460;-80
2021/07/07 06:13:26;;;;;;;1.50;0.90;;;19.80;93.70;;;;;;5021868;28;20727;-80
2021/07/07 06:15:54;;;;;;;1.50;0.90;;;19.80;93.60;;;;;;5031906;28;20486;-81
2021/07/07 06:18:21;;;;;;;1.50;1.00;;;19.80;93.60;;;;;;5029647;28;21096;-80
2021/07/07 06:20:48;;;;;;;1.50;1.00;;;19.80;94.30;;;;;;5026089;28;20749;-79
2021/07/07 06:23:15;;;;;;;1.50;1.00;;;19.80;94.20;;;;;;5019728;28;20495;-82
2021/07/07 06:25:48;;;;;;;1.50;1.00;;;19.80;93.30;;;;;;5020065;28;21049;-82
2021/07/07 06:28:15;;;;;;;1.50;0.93;;;19.80;93.70;;;;;;5013419;28;20471;-80
2021/07/07 06:30:42;;;;;;;1.50;0.90;;;19.80;93.90;;;;;;5017651;28;20475;-84
2021/07/07 06:33:11;;;;;;;1.50;1.00;;;19.80;93.80;;;;;;5017893;28;20464;-83
2021/07/07 06:35:38;;;;;;;1.50;0.90;;;19.90;94.10;;;;;;5015707;28;20565;-82
2021/07/07 06:38:05;;;;;;;1.57;1.17;;;19.90;94.40;;;;;;5025684;28;20730;-82
2021/07/07 06:40:32;;;;;;;1.50;1.00;;;20.00;95.00;;;;;;5027471;28;20468;-81
2021/07/07 06:42:59;;;;;;;1.50;1.00;;;20.10;94.40;;;;;;5025581;28;20493;-81
2021/07/07 06:45:27;;;;;;;1.50;0.90;;;20.20;94.40;;;;;;5017767;28;20885;-80
2021/07/07 06:47:54;;;;;;;1.50;1.00;;;20.30;94.70;;;;;;5018041;28;20468;-84
2021/07/07 06:50:22;;;;;;;1.50;1.00;;;20.60;93.90;;;;;;5017856;28;20492;-80
2021/07/07 06:52:49;;;;;;;1.50;0.90;;;20.90;93.30;;;;;;5021045;28;20808;-81
2021/07/07 06:55:16;;;;;;;1.50;1.00;;;21.10;92.30;;;;;;5029706;28;20487;-84
2021/07/07 06:57:43;;;;;;;1.50;0.90;;;21.30;91.70;;;;;;5023345;28;20456;-80
2021/07/07 07:00:12;;;;;;;1.50;0.90;;;21.40;91.60;;;;;;5018953;28;20467;-81
2021/07/07 07:02:40;;;;;;;1.50;0.90;;;21.50;90.90;;;;;;5028095;28;20487;-83
2021/07/07 07:05:09;;;;;;;1.50;0.90;;;21.50;90.20;;;;;;5029892;28;20488;-82
2021/07/07 07:07:38;;;;;;;1.50;0.90;;;21.50;90.00;;;;;;5020219;28;20789;-84
2021/07/07 07:10:06;;;;;;;1.50;1.00;;;21.50;90.40;;;;;;5031169;28;20463;-81
2021/07/07 07:12:35;;;;;;;1.50;0.90;;;21.80;91.70;;;;;;5029120;28;20463;-84
2021/07/07 07:15:02;;;;;;;1.50;1.00;;;22.00;90.00;;;;;;5023550;28;20483;-82
2021/07/07 07:17:29;;;;;;;1.50;0.90;;;22.10;89.60;;;;;;5030859;28;20491;-80
2021/07/07 07:19:56;;;;;;;1.53;1.00;;;22.30;88.90;;;;;;5023267;28;20467;-80
2021/07/07 07:22:22;;;;;;;1.50;0.90;;;22.30;87.70;;;;;;5028931;28;20495;-80
2021/07/07 07:24:51;;;;;;;1.50;1.00;;;22.40;87.90;;;;;;5020803;28;20492;-80
2021/07/07 07:27:19;;;;;;;1.50;1.00;;;22.30;88.00;;;;;;5026616;28;20519;-85
2021/07/07 07:29:47;;;;;;;1.50;0.90;;;22.40;88.10;;;;;;5032038;28;20484;-83
2021/07/07 07:32:15;;;;;;;1.50;0.90;;;22.60;88.80;;;;;;5020717;28;20460;-85
2021/07/07 07:34:42;;;;;;;1.57;1.00;;;22.90;87.50;;;;;;5026683;28;20586;-85
2021/07/07 07:37:13;;;;;;;1.50;0.90;;;23.30;86.40;;;;;;5017166;28;20837;-85
2021/07/07 07:39:43;;;;;;;1.50;0.90;;;23.60;86.00;;;;;;5030762;28;20533;-84
2021/07/07 07:42:16;;;;;;;1.50;0.90;;;23.50;84.60;;;;;;5026096;28;20490;-85
2021/07/07 07:44:43;;;;;;;1.50;0.90;;;23.60;85.20;;;;;;5026633;28;20543;-84
2021/07/07 07:47:11;;;;;;;1.50;0.90;;;23.70;85.10;;;;;;5023225;28;20456;-82
2021/07/07 07:49:43;;;;;;;1.53;0.90;;;23.90;85.00;;;;;;5024862;28;20464;-86
2021/07/07 07:52:10;;;;;;;1.50;0.90;;;24.10;84.10;;;;;;5036632;28;20467;-85
2021/07/07 07:54:37;;;;;;;1.50;0.90;;;24.40;84.10;;;;;;5023219;28;20884;-85
2021/07/07 07:57:04;;;;;;;1.50;0.90;;;24.60;83.40;;;;;;5019746;28;20462;-88
2021/07/07 07:59:32;;;;;;;1.50;0.90;;;24.80;82.60;;;;;;5026883;28;21266;-84
2021/07/07 08:01:59;;;;;;;1.53;0.90;;;24.90;81.90;;;;;;5029721;28;20627;-83
2021/07/07 08:04:26;;;;;;;1.50;0.87;;;25.00;82.10;;;;;;5025230;28;20476;-89
2021/07/07 08:06:53;;;;;;;1.50;0.90;;;25.20;80.50;;;;;;5030294;28;20479;-87
2021/07/07 08:09:22;;;;;;;1.50;0.80;;;25.40;81.20;;;;;;5031199;28;20608;-84
2021/07/07 08:11:51;;;;;;;1.50;0.83;;;25.50;80.10;;;;;;5033568;28;20490;-87
2021/07/07 08:14:17;;;;;;;1.50;0.90;;;25.60;80.40;;;;;;5027520;28;20495;-85
2021/07/07 08:16:45;;;;;;;1.50;0.80;;;25.50;80.70;;;;;;5030479;28;20501;-81
2021/07/07 08:19:12;;;;;;;1.50;0.90;;;25.60;80.50;;;;;;5025620;28;20470;-82
2021/07/07 08:21:39;;;;;;;1.50;0.87;;;25.50;80.30;;;;;;5028724;28;21301;-83
2021/07/07 08:24:06;;;;;;;1.50;0.87;;;25.50;80.70;;;;;;5018876;28;20490;-82
2021/07/07 08:26:33;;;;;;;1.50;0.80;;;25.80;80.60;;;;;;5026846;28;20581;-81
2021/07/07 08:29:01;;;;;;;1.50;0.90;;;26.10;79.70;;;;;;5030941;28;20474;-82
2021/07/07 08:31:28;;;;;;;1.53;0.90;;;26.30;79.00;;;;;;5019310;28;20474;-81
2021/07/07 08:33:56;;;;;;;1.50;0.87;;;26.30;78.30;;;;;;5019347;28;20495;-83
2021/07/07 08:36:26;;;;;;;1.50;0.80;;;26.40;78.10;;;;;;5029659;28;20538;-86
2021/07/07 08:38:53;;;;;;;1.50;0.90;;;26.60;77.90;;;;;;5027173;28;20880;-80
2021/07/07 08:41:21;;;;;;;1.50;0.80;;;26.80;78.70;;;;;;5025509;28;20467;-83
2021/07/07 08:43:48;;;;;;;1.60;1.00;;;27.00;77.90;;;;;;5020709;28;20470;-83
2021/07/07 08:46:15;;;;;;;1.50;0.90;;;27.00;76.70;;;;;;5023258;28;20487;-81
2021/07/07 08:48:44;;;;;;;1.50;0.80;;;27.10;76.60;;;;;;5018572;28;20467;-81
2021/07/07 08:51:12;;;;;;;1.50;0.80;;;27.00;75.60;;;;;;5025396;28;20853;-81
2021/07/07 08:53:41;;;;;;;1.50;0.90;;;26.90;75.60;;;;;;5023977;28;20491;-80
2021/07/07 08:56:08;;;;;;;1.50;0.90;;;27.00;76.70;;;;;;5014979;28;20463;-82
2021/07/07 08:58:35;;;;;;;1.50;0.80;;;27.00;76.20;;;;;;5017305;28;20467;-80
2021/07/07 09:01:02;;;;;;;1.50;0.80;;;27.10;76.50;;;;;;5017886;28;20493;-86
2021/07/07 09:03:29;;;;;;;1.50;0.80;;;27.20;76.30;;;;;;5026258;28;20473;-84
2021/07/07 09:05:57;;;;;;;1.50;0.80;;;27.40;75.10;;;;;;5018224;28;20497;-82
2021/07/07 09:08:29;;;;;;;1.50;0.80;;;27.60;75.80;;;;;;5018147;28;20467;-85
2021/07/07 09:10:58;;;;;;;1.50;0.90;;;27.70;75.10;;;;;;5020662;28;20513;-85
2021/07/07 09:13:26;;;;;;;1.50;0.90;;;27.80;73.70;;;;;;5026749;28;20483;-84
2021/07/07 09:15:53;;;;;;;1.50;0.80;;;27.70;72.10;;;;;;5029332;28;20518;-85
2021/07/07 09:18:22;;;;;;;1.50;0.80;;;27.30;69.90;;;;;;5017458;28;20496;-85
2021/07/07 09:20:58;;;;;;;1.50;0.80;;;26.90;71.10;;;;;;5031715;28;20507;-83
2021/07/07 09:23:38;;;;;;;1.50;0.90;;;26.90;71.20;;;;;;5026499;28;21201;-82
2021/07/07 09:26:10;;;;;;;1.50;0.80;;;26.80;70.50;;;;;;5023999;28;20955;-84
2021/07/07 09:28:43;;;;;;;1.73;1.30;;;26.90;70.30;;;;;;5017990;28;20467;-84
2021/07/07 09:31:29;;;;;;;1.50;0.80;;;27.10;70.30;;;;;;5025745;28;20467;-83
2021/07/07 09:34:16;;;;;;;1.50;0.83;;;27.30;68.30;;;;;;5021981;28;20524;-83
2021/07/07 09:36:46;;;;;;;1.50;0.83;;;27.30;68.40;;;;;;5033989;28;20776;-85
2021/07/07 09:39:15;;;;;;;1.47;0.80;;;27.20;68.40;;;;;;5027762;28;20476;-85
2021/07/07 09:41:42;;;;;;;1.50;0.80;;;27.00;68.50;;;;;;5029472;28;20494;-87
2021/07/07 09:44:11;;;;;;;1.50;0.80;;;26.80;69.10;;;;;;5032469;28;20977;-87
2021/07/07 09:46:38;;;;;;;1.50;1.00;;;26.60;69.80;;;;;;5031209;28;20843;-89
2021/07/07 09:49:06;;;;;;;1.50;0.80;;;26.40;71.00;;;;;;5025962;28;20460;-86
2021/07/07 09:51:34;;;;;;;1.50;0.90;;;26.10;70.70;;;;;;5029619;28;21157;-84
2021/07/07 09:54:05;;;;;;;1.50;0.90;;;25.90;72.00;;;;;;5036839;28;20482;-85
2021/07/07 09:56:34;;;;;;;1.50;0.90;;;25.80;72.00;;;;;;5028177;28;20459;-83
2021/07/07 09:59:02;;;;;;;1.50;0.90;;;26.00;72.30;;;;;;5019469;28;20480;-84
2021/07/07 10:01:28;;;;;;;1.50;0.90;;;26.30;71.90;;;;;;5030916;28;20533;-82
2021/07/07 10:04:10;;;;;;;1.50;0.90;;;26.70;71.40;;;;;;5020968;28;20855;-85
2021/07/07 10:06:37;;;;;;;1.50;0.90;;;27.10;70.80;;;;;;5024468;28;20554;-84
2021/07/07 10:09:04;;;;;;;1.50;0.80;;;27.50;69.90;;;;;;5017556;28;20481;-80
2021/07/07 10:11:33;;;;;;;1.50;0.90;;;27.90;69.50;;;;;;5019227;28;20832;-84
2021/07/07 10:14:00;;;;;;;1.50;0.90;;;28.20;68.60;;;;;;5024172;28;20531;-83
2021/07/07 10:16:27;;;;;;;1.50;0.80;;;28.50;67.70;;;;;;5013569;28;20472;-84
2021/07/07 10:18:55;;;;;;;1.50;0.80;;;28.70;67.90;;;;;;5017607;28;21095;-82
2021/07/07 10:21:23;;;;;;;1.50;0.80;;;28.80;67.90;;;;;;5018880;28;20482;-79
2021/07/07 10:23:51;;;;;;;1.50;0.80;;;29.00;67.50;;;;;;5026534;28;21008;-79
2021/07/07 10:26:21;;;;;;;1.50;0.90;;;29.30;66.20;;;;;;5021528;28;20471;-84
2021/07/07 10:28:50;;;;;;;1.50;0.80;;;29.60;65.20;;;;;;5026053;28;20469;-86
2021/07/07 10:31:18;;;;;;;1.50;0.80;;;29.70;65.50;;;;;;5030434;28;20518;-87
2021/07/07 10:33:45;;;;;;;1.50;0.80;;;29.90;64.80;;;;;;5027314;28;20487;-86
2021/07/07 10:36:18;;;;;;;1.50;0.80;;;30.10;63.80;;;;;;5026278;28;20540;-85
2021/07/07 10:38:53;;;;;;;1.47;0.80;;;30.10;65.50;;;;;;5029534;28;20467;-85
2021/07/07 10:41:55;;;;;;;1.50;0.80;;;30.00;64.00;;;;;;5028725;28;20471;-84
2021/07/07 10:44:51;;;;;;;1.50;0.80;;;29.60;63.00;;;;;;5018318;28;20555;-83
2021/07/07 10:47:36;;;;;;;1.43;0.80;;;29.10;64.60;;;;;;5021570;28;20471;-85
2021/07/07 10:50:07;;;;;;;1.50;0.90;;;28.70;65.30;;;;;;5026152;28;20478;-85
2021/07/07 10:52:43;;;;;;;1.50;0.90;;;28.50;67.50;;;;;;5020606;28;20479;-82
2021/07/07 10:55:12;;;;;;;1.50;0.80;;;28.20;67.30;;;;;;5018344;28;20543;-84
2021/07/07 10:57:40;;;;;;;1.50;0.90;;;28.00;66.70;;;;;;5025933;28;20498;-85
2021/07/07 11:00:30;;;;;;;1.50;0.90;;;27.90;67.10;;;;;;5032871;28;20973;-85
2021/07/07 11:03:19;;;;;;;1.50;0.90;;;27.90;66.30;;;;;;5025994;28;20478;-85
2021/07/07 11:05:46;;;;;;;1.47;0.90;;;27.90;65.80;;;;;;5020432;28;20478;-84
2021/07/07 11:08:19;;;;;;;1.43;0.80;;;28.00;65.50;;;;;;5033243;28;20482;-82
2021/07/07 11:10:54;;;;;;;1.50;0.90;;;28.20;66.50;;;;;;5031555;28;20464;-83
2021/07/07 11:13:21;;;;;;;1.50;0.80;;;28.50;66.90;;;;;;5015759;28;20946;-83
2021/07/07 11:15:49;;;;;;;1.47;0.80;;;28.70;65.70;;;;;;5017491;28;20495;-84
2021/07/07 11:18:20;;;;;;;1.40;0.80;;;28.80;65.30;;;;;;5023761;28;20491;-86
2021/07/07 11:21:03;;;;;;;1.60;1.20;;;28.90;64.60;;;;;;5019491;28;20922;-83
2021/07/07 11:23:31;;;;;;;1.47;0.90;;;29.00;64.50;;;;;;5031879;28;20469;-83
2021/07/07 11:25:58;;;;;;;1.47;0.80;;;29.20;67.10;;;;;;5031030;28;20505;-84
2021/07/07 11:28:25;;;;;;;1.63;1.07;;;29.40;66.40;;;;;;5030065;28;20525;-81
2021/07/07 11:30:55;;;;;;;1.47;0.80;;;29.50;65.30;;;;;;5030010;28;20462;-81
2021/07/07 11:33:21;;;;;;;1.43;0.80;;;29.70;66.00;;;;;;5030671;28;20470;-83
2021/07/07 11:35:52;;;;;;;1.43;0.80;;;29.90;65.70;;;;;;5030794;28;20494;-86
2021/07/07 11:38:26;;;;;;;1.50;0.80;;;29.80;64.10;;;;;;5021536;28;20517;-87
2021/07/07 11:40:55;;;;;;;1.50;0.87;;;29.70;65.60;;;;;;5029282;28;20580;-86
2021/07/07 11:43:25;;;;;;;1.43;0.80;;;29.60;64.00;;;;;;5028596;28;20462;-84
2021/07/07 11:46:02;;;;;;;1.50;0.90;;;29.80;65.00;;;;;;5017640;28;20487;-86
2021/07/07 11:48:32;;;;;;;1.50;0.80;;;30.10;64.10;;;;;;5034423;28;20519;-86
2021/07/07 11:51:02;;;;;;;1.47;0.80;;;30.40;62.00;;;;;;5028620;28;20468;-85
2021/07/07 11:53:37;;;;;;;1.50;0.83;;;30.50;62.30;;;;;;5021390;28;20555;-78
2021/07/07 11:56:06;;;;;;;1.47;0.80;;;30.40;62.10;;;;;;5026874;28;20494;-85
2021/07/07 11:58:41;;;;;;;1.43;0.90;;;30.30;63.10;;;;;;5027182;28;20486;-83
2021/07/07 12:01:14;;;;;;;1.47;0.80;;;30.10;62.60;;;;;;5023972;28;20490;-83
2021/07/07 12:03:41;;;;;;;1.47;0.93;;;29.90;63.70;;;;;;5023805;28;20466;-82
2021/07/07 12:06:09;;;;;;;1.43;0.80;;;29.80;64.40;;;;;;5028097;28;20471;-84
2021/07/07 12:08:38;;;;;;;1.43;0.80;;;29.60;64.70;;;;;;5028336;28;20463;-82
2021/07/07 12:11:10;;;;;;;1.47;0.90;;;29.50;64.50;;;;;;5016588;28;20554;-86
2021/07/07 12:13:38;;;;;;;1.47;0.80;;;29.40;65.30;;;;;;5025920;28;20798;-82
2021/07/07 12:16:21;;;;;;;1.50;0.90;;;29.40;64.60;;;;;;5025754;28;20498;-83
2021/07/07 12:18:49;;;;;;;1.47;0.80;;;29.60;64.90;;;;;;5013780;28;20473;-81
2021/07/07 12:21:39;;;;;;;1.40;0.80;;;29.90;64.70;;;;;;5019779;28;20475;-83
2021/07/07 12:24:08;;;;;;;1.43;0.80;;;30.20;63.20;;;;;;5018205;28;20486;-83
2021/07/07 12:26:37;;;;;;;1.40;0.80;;;30.60;63.00;;;;;;5024098;28;20468;-81
2021/07/07 12:29:04;;;;;;;1.50;0.80;;;30.90;62.00;;;;;;5019650;28;20469;-84
2021/07/07 12:31:37;;;;;;;1.43;0.80;;;31.00;61.10;;;;;;5023412;28;20505;-82
2021/07/07 12:34:05;;;;;;;1.43;0.80;;;30.90;60.50;;;;;;5026378;28;20486;-83
2021/07/07 12:36:34;;;;;;;1.47;0.80;;;30.60;60.70;;;;;;5020579;28;20474;-80
2021/07/07 12:39:10;;;;;;;1.47;0.80;;;30.10;62.20;;;;;;5021799;28;20550;-81
2021/07/07 12:41:38;;;;;;;1.50;0.90;;;29.40;63.20;;;;;;5024269;28;20974;-79
2021/07/07 12:44:10;;;;;;;1.50;0.80;;;29.00;64.70;;;;;;5026491;28;20490;-81
2021/07/07 12:46:49;;;;;;;1.47;0.80;;;28.60;65.80;;;;;;5031974;28;20470;-83
2021/07/07 12:49:22;;;;;;;1.50;0.80;;;28.40;65.90;;;;;;5016502;28;20467;-83
2021/07/07 12:51:50;;;;;;;1.47;0.90;;;28.20;66.10;;;;;;5023920;28;20478;-84
2021/07/07 12:54:22;;;;;;;1.50;0.80;;;28.00;66.50;;;;;;5012429;28;20779;-83